Time;durP1;ratioP1;P1;durP2;ratioP2;P2;SDS_P1;SDS_P2;PMS_P1;PMS_P2;Temp;Humidity;BMP_temperature;BMP_pressure;BME280_temperature;BME280_humidity;BME280_pressure;Samples;Min_cycle;Max_cycle;Signal;HPM_P1;HPM_P2
2023/06/05 00:01:13;;;;;;;13.40;4.20;;;;;;;11.00;59.35;99506.87;136023;1259;23272;-66
2023/06/05 00:04:25;;;;;;;14.50;4.30;;;;;;;11.13;58.88;99502.71;135883;1266;22517;-61
2023/06/05 00:07:30;;;;;;;15.50;4.00;;;;;;;11.15;58.78;99502.92;136024;1276;22520;-62
2023/06/05 00:10:33;;;;;;;15.30;4.40;;;;;;;11.15;58.98;99499.77;136012;1276;22520;-63
2023/06/05 00:13:36;;;;;;;17.30;4.40;;;;;;;11.17;58.44;99499.66;135966;1276;24255;-64
2023/06/05 00:16:39;;;;;;;13.80;3.90;;;;;;;11.09;58.40;99501.64;135965;1276;25322;-63
2023/06/05 00:19:41;;;;;;;14.20;4.20;;;;;;;11.01;58.81;99502.58;136015;1276;22543;-63
2023/06/05 00:22:47;;;;;;;16.10;4.10;;;;;;;11.01;58.63;99504.00;136007;1276;22526;-62
2023/06/05 00:25:49;;;;;;;14.30;3.90;;;;;;;10.94;59.17;99502.27;135996;1276;25315;-63
2023/06/05 00:28:52;;;;;;;16.80;4.50;;;;;;;10.88;59.15;99502.71;135993;1276;22524;-61
2023/06/05 00:31:54;;;;;;;;;;;;;;;10.82;59.62;99503.05;136018;1258;22860;-65
2023/06/05 00:34:57;;;;;;;16.10;4.60;;;;;;;10.79;59.56;99500.39;135963;1276;22523;-61
2023/06/05 00:38:02;;;;;;;16.80;4.40;;;;;;;10.72;59.64;99498.30;135954;1276;22546;-62
2023/06/05 00:41:05;;;;;;;16.30;4.40;;;;;;;10.61;59.49;99494.48;135870;1276;22544;-64
2023/06/05 00:44:11;;;;;;;16.20;4.20;;;;;;;10.55;60.11;99490.22;135646;1276;22526;-64
2023/06/05 00:47:14;;;;;;;;;;;;;;;10.51;60.55;99486.96;135892;1276;22517;-67
2023/06/05 00:50:17;;;;;;;17.10;4.20;;;;;;;10.46;59.96;99487.37;135806;1276;22519;-63
2023/06/05 00:53:20;;;;;;;16.70;4.40;;;;;;;10.42;60.32;99484.08;135984;1276;22524;-62
2023/06/05 00:56:22;;;;;;;18.90;4.80;;;;;;;10.37;60.69;99489.89;135900;1276;24212;-63
2023/06/05 00:59:25;;;;;;;;;;;;;;;10.40;60.98;99488.02;135933;1276;22521;-64
2023/06/05 01:02:28;;;;;;;16.30;4.40;;;;;;;10.24;61.33;99482.30;135968;1276;26490;-64
2023/06/05 01:05:33;;;;;;;15.70;3.70;;;;;;;10.17;61.33;99484.71;135948;1276;25243;-65
2023/06/05 01:08:38;;;;;;;15.30;4.30;;;;;;;10.14;61.49;99484.70;135959;1276;25488;-64
2023/06/05 01:11:41;;;;;;;17.80;4.00;;;;;;;10.14;61.67;99481.55;135948;1276;23160;-63
2023/06/05 01:14:45;;;;;;;;;;;;;;;10.13;61.90;99482.65;135958;1264;22502;-63
2023/06/05 01:17:48;;;;;;;17.50;4.20;;;;;;;10.09;62.07;99478.69;135994;1276;22527;-63
2023/06/05 01:20:56;;;;;;;18.00;4.60;;;;;;;9.96;61.79;99479.98;135921;1276;24337;-62
2023/06/05 01:23:58;;;;;;;15.40;4.20;;;;;;;9.89;62.17;99481.20;135995;1276;22527;-62
2023/06/05 01:27:02;;;;;;;15.40;4.10;;;;;;;9.88;62.41;99479.66;135985;1276;22559;-61
2023/06/05 01:30:04;;;;;;;15.00;3.90;;;;;;;9.83;62.78;99479.20;135902;1276;24721;-62
2023/06/05 01:33:07;;;;;;;;;;;;;;;9.85;62.30;99479.81;135988;1263;22502;-63
2023/06/05 01:36:09;;;;;;;16.60;3.90;;;;;;;9.70;62.75;99479.27;136003;1276;22539;-61
2023/06/05 01:39:12;;;;;;;13.60;3.50;;;;;;;9.64;62.48;99478.31;135932;1259;24270;-60
2023/06/05 01:42:15;;;;;;;16.40;4.30;;;;;;;9.56;62.60;99476.63;135975;1276;22523;-61
2023/06/05 01:45:18;;;;;;;13.10;4.00;;;;;;;9.47;63.41;99478.44;136009;1276;22552;-62
2023/06/05 01:48:20;;;;;;;19.10;4.90;;;;;;;9.47;63.86;99480.33;135986;1276;22539;-63
2023/06/05 01:51:22;;;;;;;;;;;;;;;9.41;63.89;99478.52;136042;1276;22505;-61
2023/06/05 01:54:26;;;;;;;17.80;4.40;;;;;;;9.34;64.36;99481.65;135998;1276;22516;-65
2023/06/05 01:57:29;;;;;;;17.20;4.70;;;;;;;9.35;63.65;99482.45;135988;1276;22531;-61
2023/06/05 02:00:31;;;;;;;16.20;4.50;;;;;;;9.37;63.85;99486.05;136000;1276;24187;-61
2023/06/05 02:03:34;;;;;;;;;;;;;;;9.36;64.27;99483.30;135979;1276;22511;-63
2023/06/05 02:06:41;;;;;;;14.50;3.90;;;;;;;9.36;64.59;99479.81;135958;1276;22520;-63
2023/06/05 02:09:43;;;;;;;15.70;4.20;;;;;;;9.32;64.72;99482.95;135928;1259;22536;-62
2023/06/05 02:12:46;;;;;;;;;;;;;;;9.21;65.17;99479.10;135998;1258;22516;-62
2023/06/05 02:15:52;;;;;;;17.20;4.80;;;;;;;9.18;65.38;99477.99;135993;1276;22538;-63
2023/06/05 02:18:57;;;;;;;17.30;5.10;;;;;;;9.35;64.42;99479.86;135994;1276;22537;-64
2023/06/05 02:21:59;;;;;;;15.60;4.30;;;;;;;9.36;64.62;99482.75;136011;1276;22671;-62
2023/06/05 02:25:02;;;;;;;;;;;;;;;9.22;65.34;99476.02;135959;1276;22609;-62
2023/06/05 02:28:05;;;;;;;18.20;5.30;;;;;;;9.13;65.90;99478.05;135969;1276;22531;-61
2023/06/05 02:31:07;;;;;;;16.60;4.50;;;;;;;8.99;66.18;99474.98;135995;1276;22533;-65
2023/06/05 02:34:10;;;;;;;15.40;4.70;;;;;;;9.05;65.43;99474.54;135975;1276;23001;-63
2023/06/05 02:37:12;;;;;;;;;;;;;;;9.05;65.52;99478.23;135970;1276;22501;-64
2023/06/05 02:40:15;;;;;;;17.50;4.80;;;;;;;9.07;65.65;99479.02;135973;1276;22689;-65
2023/06/05 02:43:19;;;;;;;17.80;5.00;;;;;;;9.10;65.78;99479.38;135979;1276;22524;-66
2023/06/05 02:46:24;;;;;;;16.00;4.30;;;;;;;9.23;65.22;99484.77;135940;1276;24044;-64
2023/06/05 02:49:27;;;;;;;16.60;4.40;;;;;;;9.29;65.83;99480.48;135963;1276;22524;-62
2023/06/05 02:52:31;;;;;;;21.80;5.20;;;;;;;9.40;65.36;99479.65;135954;1276;22536;-61
2023/06/05 02:55:34;;;;;;;16.60;4.30;;;;;;;9.49;65.22;99478.48;135905;1276;22516;-61
2023/06/05 02:58:37;;;;;;;19.80;5.00;;;;;;;9.48;64.61;99477.15;135973;1260;22525;-64
2023/06/05 03:01:47;;;;;;;15.90;4.50;;;;;;;9.57;64.67;99478.50;136010;1276;22525;-62
2023/06/05 03:04:53;;;;;;;18.60;4.70;;;;;;;9.54;65.46;99481.77;135965;1260;22520;-60
2023/06/05 03:07:55;;;;;;;17.60;5.10;;;;;;;9.47;64.89;99484.54;135939;1276;25472;-63
2023/06/05 03:10:58;;;;;;;18.60;5.50;;;;;;;9.50;64.58;99486.67;135957;1276;22520;-63
2023/06/05 03:14:01;;;;;;;;;;;;;;;9.64;64.85;99485.35;135884;1276;22521;-62
2023/06/05 03:17:03;;;;;;;17.80;4.80;;;;;;;9.79;64.71;99485.52;135937;1276;22532;-62
2023/06/05 03:20:06;;;;;;;17.80;4.70;;;;;;;9.92;64.95;99484.73;135992;1276;22596;-62
2023/06/05 03:23:10;;;;;;;13.70;4.40;;;;;;;10.06;65.24;99484.23;135985;1276;22523;-60
2023/06/05 03:26:12;;;;;;;15.40;4.70;;;;;;;10.39;63.45;99483.01;135917;1259;22636;-62
2023/06/05 03:29:15;;;;;;;;;;;;;;;10.50;63.35;99484.02;135812;1276;22528;-61
2023/06/05 03:32:18;;;;;;;;;;;;;;;10.59;63.26;99485.33;135975;1276;22524;-63
2023/06/05 03:35:20;;;;;;;15.40;4.50;;;;;;;10.55;63.15;99487.45;135959;1267;22516;-62
2023/06/05 03:38:22;;;;;;;19.10;5.70;;;;;;;10.57;63.75;99486.44;135929;1270;22511;-63
2023/06/05 03:41:25;;;;;;;20.10;6.00;;;;;;;10.62;64.30;99486.07;135941;1276;22547;-61
2023/06/05 03:44:28;;;;;;;23.10;6.60;;;;;;;10.90;64.05;99487.23;135854;1259;22660;-60
2023/06/05 03:47:30;;;;;;;21.20;6.10;;;;;;;11.19;63.52;99483.11;135927;1257;22527;-63
2023/06/05 03:50:37;;;;;;;;;;;;;;;11.37;63.59;99484.61;135960;1256;22501;-63
2023/06/05 03:53:43;;;;;;;19.50;5.50;;;;;;;11.64;64.12;99485.10;135847;1276;22537;-63
2023/06/05 03:56:49;;;;;;;17.80;5.20;;;;;;;12.13;62.60;99483.44;135932;1276;22591;-61
2023/06/05 03:59:52;;;;;;;19.60;5.30;;;;;;;12.36;62.29;99480.03;135978;1276;22520;-62
2023/06/05 04:02:58;;;;;;;17.80;5.00;;;;;;;12.63;61.83;99481.41;136002;1276;22564;-63
2023/06/05 04:06:00;;;;;;;19.50;5.90;;;;;;;12.72;62.47;99484.25;135955;1276;22531;-64
2023/06/05 04:09:09;;;;;;;17.80;5.10;;;;;;;12.83;62.83;99483.94;135931;1276;22517;-62
2023/06/05 04:12:13;;;;;;;18.70;5.80;;;;;;;13.10;62.69;99481.98;135966;1260;22529;-64
2023/06/05 04:15:16;;;;;;;19.70;6.10;;;;;;;13.39;62.33;99478.82;135960;1276;22521;-64
2023/06/05 04:18:19;;;;;;;;;;;;;;;13.66;62.01;99476.25;135952;1263;22497;-63
2023/06/05 04:21:21;;;;;;;23.30;8.10;;;;;;;13.91;61.74;99480.27;135963;1276;22532;-64
2023/06/05 04:24:25;;;;;;;23.80;8.70;;;;;;;14.03;61.24;99479.71;135930;1276;23895;-62
2023/06/05 04:27:29;;;;;;;21.50;8.00;;;;;;;14.15;61.04;99481.23;135968;1276;22531;-64
2023/06/05 04:30:32;;;;;;;23.40;8.10;;;;;;;14.27;61.16;99483.80;135975;1267;24478;-65
2023/06/05 04:33:34;;;;;;;24.40;8.00;;;;;;;14.35;61.80;99483.11;135904;1276;25346;-63
2023/06/05 04:36:37;;;;;;;;;;;;;;;14.50;62.23;99483.69;135944;1276;22510;-64
2023/06/05 04:39:40;;;;;;;;;;;;;;;14.59;62.57;99483.79;135961;1276;22524;-66
2023/06/05 04:42:42;;;;;;;;;;;;;;;14.79;62.44;99487.02;135998;1276;22532;-63
2023/06/05 04:45:47;;;;;;;22.40;6.80;;;;;;;15.13;61.87;99483.28;135972;1276;22581;-62
2023/06/05 04:48:50;;;;;;;21.30;6.60;;;;;;;15.47;60.64;99478.46;135990;1276;22552;-67
2023/06/05 04:51:53;;;;;;;22.80;6.30;;;;;;;15.79;61.26;99477.83;135976;1276;22526;-64
2023/06/05 04:54:56;;;;;;;21.10;6.20;;;;;;;16.10;60.86;99474.52;135974;1260;22530;-63
2023/06/05 04:58:00;;;;;;;17.70;5.40;;;;;;;16.49;60.30;99474.27;135973;1276;22544;-66
2023/06/05 05:01:06;;;;;;;19.90;5.80;;;;;;;16.79;59.72;99477.65;135965;1276;22527;-64
2023/06/05 05:04:09;;;;;;;19.40;5.30;;;;;;;17.07;59.37;99482.26;135897;1276;22507;-64
2023/06/05 05:07:15;;;;;;;19.40;5.20;;;;;;;17.27;58.36;99480.55;135890;1276;22517;-64
2023/06/05 05:10:19;;;;;;;21.80;5.70;;;;;;;17.49;58.66;99478.96;135889;1276;22534;-62
2023/06/05 05:13:23;;;;;;;21.00;5.40;;;;;;;17.65;57.93;99475.04;135873;1276;22532;-64
2023/06/05 05:16:26;;;;;;;19.00;5.20;;;;;;;18.04;57.93;99474.63;135862;1276;24231;-62
2023/06/05 05:19:30;;;;;;;23.80;5.60;;;;;;;18.41;57.28;99477.10;135811;1276;22545;-69
2023/06/05 05:22:32;;;;;;;17.10;4.80;;;;;;;18.62;56.93;99478.49;135930;1276;22529;-63
2023/06/05 05:25:36;;;;;;;17.40;5.20;;;;;;;18.84;56.67;99475.11;135962;1276;22614;-65
2023/06/05 05:28:39;;;;;;;;;;;;;;;19.18;56.63;99475.77;135958;1276;25462;-63
2023/06/05 05:31:42;;;;;;;16.60;3.90;;;;;;;19.61;55.15;99472.73;135990;1276;22520;-63
2023/06/05 05:34:44;;;;;;;13.50;3.50;;;;;;;20.02;54.01;99472.30;135863;1275;22531;-65
2023/06/05 05:37:48;;;;;;;17.10;3.70;;;;;;;20.42;52.66;99467.64;135951;1276;22520;-64
2023/06/05 05:40:50;;;;;;;12.20;3.20;;;;;;;20.76;52.08;99464.16;135848;1263;22532;-66
2023/06/05 05:43:53;;;;;;;12.40;3.30;;;;;;;21.10;50.91;99466.80;135982;1276;22718;-66
2023/06/05 05:46:57;;;;;;;11.60;3.20;;;;;;;21.37;49.82;99462.88;135911;1276;22540;-66
2023/06/05 05:50:00;;;;;;;14.90;3.20;;;;;;;21.67;49.11;99461.09;135970;1276;22575;-66
2023/06/05 05:53:07;;;;;;;10.40;3.30;;;;;;;21.97;48.38;99457.58;135930;1276;22527;-65
2023/06/05 05:56:10;;;;;;;8.20;2.70;;;;;;;22.20;46.93;99461.90;135948;1276;25356;-64
2023/06/05 05:59:15;;;;;;;10.00;2.90;;;;;;;22.42;46.59;99465.09;135927;1276;22524;-65
2023/06/05 06:02:20;;;;;;;9.90;2.80;;;;;;;22.62;45.45;99464.52;135973;1276;22570;-66
2023/06/05 06:05:23;;;;;;;10.00;2.70;;;;;;;22.84;45.20;99466.23;135955;1276;22533;-67
2023/06/05 06:08:27;;;;;;;8.20;2.60;;;;;;;23.04;44.53;99467.77;135972;1276;22661;-65
2023/06/05 06:11:31;;;;;;;12.10;2.90;;;;;;;23.31;44.58;99467.35;135994;1276;22579;-65
2023/06/05 06:14:35;;;;;;;26.20;14.10;;;;;;;23.57;43.71;99471.58;135989;1276;22543;-67
2023/06/05 06:17:38;;;;;;;12.00;2.80;;;;;;;23.83;41.31;99472.81;135920;1276;22543;-66
2023/06/05 06:20:42;;;;;;;11.50;2.70;;;;;;;23.89;41.78;99473.08;135928;1276;22531;-67
2023/06/05 06:23:45;;;;;;;12.30;2.80;;;;;;;24.14;41.14;99472.86;135961;1276;22520;-66
2023/06/05 06:26:49;;;;;;;13.10;2.50;;;;;;;24.35;40.56;99474.94;135981;1276;22537;-65
2023/06/05 06:29:53;;;;;;;9.90;2.70;;;;;;;24.56;40.46;99473.53;135952;1276;22637;-66
2023/06/05 06:32:58;;;;;;;8.80;2.50;;;;;;;24.93;40.16;99472.77;135921;1276;22518;-66
2023/06/05 06:36:01;;;;;;;8.90;2.60;;;;;;;25.18;39.86;99471.23;135980;1276;22524;-69
2023/06/05 06:39:07;;;;;;;10.30;2.70;;;;;;;25.47;39.49;99474.71;135968;1276;22546;-66
2023/06/05 06:42:11;;;;;;;10.10;2.80;;;;;;;25.73;38.31;99469.89;135939;1275;22523;-69
2023/06/05 06:45:15;;;;;;;11.60;2.70;;;;;;;25.96;38.53;99471.18;135967;1276;22763;-67
2023/06/05 06:48:19;;;;;;;11.70;2.80;;;;;;;26.22;37.72;99468.00;135974;1276;22524;-69
2023/06/05 06:51:23;;;;;;;12.10;3.10;;;;;;;26.31;36.75;99467.29;135923;1276;22543;-69
2023/06/05 06:54:29;;;;;;;10.60;2.50;;;;;;;26.48;36.45;99465.38;136003;1276;22531;-67
2023/06/05 06:57:33;;;;;;;9.30;2.70;;;;;;;26.68;36.54;99462.24;136015;1256;22545;-68
2023/06/05 07:00:36;;;;;;;7.50;2.70;;;;;;;26.89;36.24;99460.17;135972;1276;22516;-64
2023/06/05 07:03:40;;;;;;;9.70;2.70;;;;;;;27.08;36.02;99461.79;135880;1276;22654;-65
2023/06/05 07:06:43;;;;;;;10.30;3.00;;;;;;;27.24;35.38;99462.05;135978;1276;22985;-67
2023/06/05 07:09:46;;;;;;;11.60;2.90;;;;;;;27.41;35.28;99465.23;135950;1275;22537;-63
2023/06/05 07:12:48;;;;;;;9.10;2.40;;;;;;;27.53;34.57;99462.56;135947;1276;22549;-66
2023/06/05 07:15:55;;;;;;;11.20;2.70;;;;;;;27.65;34.09;99463.83;135952;1276;22535;-65
2023/06/05 07:18:58;;;;;;;12.70;2.80;;;;;;;27.70;33.82;99467.58;135912;1254;24264;-65
2023/06/05 07:22:01;;;;;;;10.70;3.20;;;;;;;27.89;32.63;99465.88;135952;1276;22537;-65
2023/06/05 07:25:04;;;;;;;8.90;2.70;;;;;;;28.02;31.93;99462.84;135972;1276;22520;-66
2023/06/05 07:28:07;;;;;;;9.30;2.80;;;;;;;28.34;31.97;99465.54;135965;1276;22534;-66
2023/06/05 07:31:10;;;;;;;6.60;2.60;;;;;;;28.57;31.74;99470.92;135971;1276;22549;-69
2023/06/05 07:34:14;;;;;;;8.80;2.70;;;;;;;28.75;31.62;99467.42;135910;1276;22520;-67
2023/06/05 07:37:18;;;;;;;7.80;2.70;;;;;;;28.91;31.41;99464.10;135938;1276;22520;-66
2023/06/05 07:40:20;;;;;;;9.30;2.60;;;;;;;29.03;31.47;99463.93;135931;1276;25444;-68
2023/06/05 07:43:23;;;;;;;7.50;2.30;;;;;;;29.10;30.22;99459.19;135972;1276;22548;-70
2023/06/05 07:46:26;;;;;;;10.20;2.70;;;;;;;29.16;31.04;99462.13;135981;1276;24408;-66
2023/06/05 07:49:30;;;;;;;10.20;2.80;;;;;;;29.40;30.71;99461.17;135997;1276;22534;-67
2023/06/05 07:52:49;;;;;;;12.00;3.00;;;;;;;29.51;30.23;99459.80;135975;1276;22548;-67
2023/06/05 07:55:52;;;;;;;6.80;2.70;;;;;;;29.69;30.53;99458.28;135984;1276;22538;-67
2023/06/05 07:58:56;;;;;;;7.40;2.70;;;;;;;29.80;30.33;99458.19;135979;1276;22516;-66
2023/06/05 08:01:59;;;;;;;7.40;2.60;;;;;;;29.83;29.43;99459.02;135945;1267;22530;-64
2023/06/05 08:05:03;;;;;;;11.20;2.60;;;;;;;29.81;29.12;99455.91;135973;1276;23186;-67
2023/06/05 08:08:05;;;;;;;8.90;2.50;;;;;;;29.93;29.44;99461.16;135974;1276;22517;-64
2023/06/05 08:11:08;;;;;;;8.40;2.60;;;;;;;30.05;29.33;99460.44;135953;1276;22572;-67
2023/06/05 08:14:12;;;;;;;9.20;2.60;;;;;;;30.24;28.98;99452.82;135999;1276;25503;-64
2023/06/05 08:17:23;;;;;;;8.50;2.70;;;;;;;30.38;27.97;99451.70;135886;1276;22532;-66
2023/06/05 08:20:27;;;;;;;11.30;2.80;;;;;;;30.08;25.68;99449.80;135962;1276;22536;-65
2023/06/05 08:23:30;;;;;;;8.10;2.30;;;;;;;29.71;26.21;99449.98;135984;1276;22520;-66
2023/06/05 08:26:33;;;;;;;8.80;2.60;;;;;;;29.56;26.15;99448.84;135982;1276;22526;-66
2023/06/05 08:29:37;;;;;;;8.90;2.40;;;;;;;29.69;26.52;99450.42;135975;1276;25289;-65
2023/06/05 08:32:43;;;;;;;10.30;2.90;;;;;;;29.99;26.78;99447.41;135966;1276;22815;-65
2023/06/05 08:35:45;;;;;;;9.40;2.80;;;;;;;30.17;26.15;99441.86;135999;1276;22994;-66
2023/06/05 08:38:48;;;;;;;10.20;2.80;;;;;;;30.33;26.57;99443.70;135995;1276;22671;-66
2023/06/05 08:41:51;;;;;;;8.40;2.50;;;;;;;30.68;26.43;99447.05;135979;1267;22538;-68
2023/06/05 08:44:54;;;;;;;11.20;2.60;;;;;;;30.89;26.27;99445.10;135992;1276;22557;-66
2023/06/05 08:47:56;;;;;;;8.30;2.50;;;;;;;30.90;25.80;99443.52;135996;1259;22680;-66
2023/06/05 08:51:00;;;;;;;9.30;2.40;;;;;;;30.88;26.33;99442.73;135984;1276;22517;-67
2023/06/05 08:54:04;;;;;;;9.40;2.50;;;;;;;30.70;24.10;99439.42;135960;1276;22523;-67
2023/06/05 08:57:07;;;;;;;9.60;2.70;;;;;;;30.36;24.34;99437.42;135947;1276;22562;-64
2023/06/05 09:00:10;;;;;;;5.20;2.40;;;;;;;30.14;24.24;99437.27;135990;1276;22536;-66
2023/06/05 09:03:14;;;;;;;12.40;2.70;;;;;;;30.28;25.46;99437.92;135985;1276;22524;-68
2023/06/05 09:06:18;;;;;;;10.10;2.40;;;;;;;30.61;24.52;99437.94;135956;1276;22522;-68
2023/06/05 09:09:25;;;;;;;9.20;2.60;;;;;;;30.66;25.32;99433.83;135994;1276;22515;-69
2023/06/05 09:12:28;;;;;;;12.00;2.80;;;;;;;30.98;24.70;99429.40;135983;1276;22526;-68
2023/06/05 09:15:31;;;;;;;8.10;2.90;;;;;;;31.06;24.72;99431.44;135996;1276;22542;-66
2023/06/05 09:18:36;;;;;;;10.20;2.60;;;;;;;31.21;24.31;99433.02;135937;1276;22543;-71
2023/06/05 09:21:39;;;;;;;9.70;2.40;;;;;;;31.26;23.08;99433.95;135988;1267;22527;-66
2023/06/05 09:24:43;;;;;;;9.70;2.80;;;;;;;31.00;23.08;99423.92;135885;1276;22556;-66
2023/06/05 09:27:47;;;;;;;11.50;2.60;;;;;;;30.99;23.75;99422.41;135913;1276;22523;-66
2023/06/05 09:30:49;;;;;;;13.60;2.70;;;;;;;30.84;23.71;99422.37;135918;1276;22534;-66
2023/06/05 09:33:52;;;;;;;11.40;2.60;;;;;;;30.76;23.57;99428.60;135881;1276;22545;-67
2023/06/05 09:36:55;;;;;;;7.30;2.20;;;;;;;30.95;24.01;99422.32;135943;1276;22539;-69
2023/06/05 09:39:57;;;;;;;9.10;2.50;;;;;;;31.43;24.61;99423.50;136028;1276;22527;-69
2023/06/05 09:43:08;;;;;;;10.50;2.50;;;;;;;31.48;22.39;99417.23;135955;1276;22519;-67
2023/06/05 09:46:11;;;;;;;6.50;2.40;;;;;;;31.38;22.90;99424.91;135984;1276;22521;-67
2023/06/05 09:49:14;;;;;;;7.30;2.20;;;;;;;31.73;23.45;99422.76;135981;1276;22549;-70
2023/06/05 09:52:18;;;;;;;8.10;2.60;;;;;;;31.99;23.23;99421.77;136006;1276;22522;-65
2023/06/05 09:55:21;;;;;;;11.00;2.40;;;;;;;31.95;22.61;99417.66;135983;1276;22524;-69
2023/06/05 09:58:25;;;;;;;6.40;2.20;;;;;;;31.94;22.84;99415.88;136009;1276;22513;-67
2023/06/05 10:01:30;;;;;;;10.40;2.40;;;;;;;32.25;22.90;99413.45;136008;1276;22525;-67
2023/06/05 10:04:33;;;;;;;11.00;2.60;;;;;;;32.41;22.17;99413.50;135990;1276;25623;-69
2023/06/05 10:07:36;;;;;;;9.70;2.40;;;;;;;32.55;22.85;99402.80;135993;1276;22524;-69
2023/06/05 10:10:39;;;;;;;14.30;2.50;;;;;;;32.75;22.40;99410.69;135977;1276;22523;-65
2023/06/05 10:13:42;;;;;;;7.90;2.20;;;;;;;32.85;22.51;99409.67;136001;1276;22534;-67
2023/06/05 10:16:45;;;;;;;14.50;2.80;;;;;;;32.75;22.65;99409.30;135955;1276;22538;-66
2023/06/05 10:19:47;;;;;;;7.70;2.40;;;;;;;32.87;22.19;99402.27;135993;1276;22549;-67
2023/06/05 10:22:50;;;;;;;10.40;2.40;;;;;;;33.03;21.75;99406.46;136035;1276;22527;-66
2023/06/05 10:26:09;;;;;;;11.70;2.50;;;;;;;32.76;21.67;99394.80;135971;1276;22516;-66
2023/06/05 10:29:12;;;;;;;8.50;2.20;;;;;;;32.65;21.72;99389.33;136018;1276;22527;-68
2023/06/05 10:32:16;;;;;;;8.70;2.30;;;;;;;32.66;22.18;99386.87;135977;1276;22545;-68
2023/06/05 10:35:35;;;;;;;9.50;2.50;;;;;;;32.75;21.62;99383.26;136004;1276;22539;-70
2023/06/05 10:38:38;;;;;;;7.60;2.30;;;;;;;32.69;21.21;99383.65;136015;1276;22543;-65
2023/06/05 10:41:41;;;;;;;9.50;2.50;;;;;;;33.00;22.12;99379.00;136005;1276;22545;-69
2023/06/05 10:44:44;;;;;;;10.70;2.40;;;;;;;33.25;21.92;99373.58;135977;1276;22510;-68
2023/06/05 10:47:47;;;;;;;8.60;2.50;;;;;;;33.39;22.10;99373.48;136008;1276;22537;-68
2023/06/05 10:50:50;;;;;;;14.20;2.40;;;;;;;33.64;21.70;99375.30;135946;1276;22520;-69
2023/06/05 10:53:54;;;;;;;10.40;2.50;;;;;;;33.88;21.48;99371.30;135723;1259;391701;-71
2023/06/05 10:56:56;;;;;;;9.30;2.60;;;;;;;34.13;21.76;99368.80;135981;1276;25401;-67
2023/06/05 10:59:59;;;;;;;8.50;2.50;;;;;;;34.28;21.44;99371.70;136012;1276;22567;-68
2023/06/05 11:03:02;;;;;;;9.90;2.70;;;;;;;34.44;21.56;99366.63;136033;1276;22544;-68
2023/06/05 11:06:05;;;;;;;7.50;2.50;;;;;;;34.44;21.07;99364.36;136044;1276;24330;-70
2023/06/05 11:09:10;;;;;;;13.80;2.50;;;;;;;34.56;21.65;99353.56;135978;1276;22513;-67
2023/06/05 11:12:13;;;;;;;15.00;2.80;;;;;;;34.57;20.69;99355.16;135976;1276;22737;-69
2023/06/05 11:15:17;;;;;;;8.50;2.40;;;;;;;33.91;20.15;99352.16;136040;1260;22639;-71
2023/06/05 11:18:20;;;;;;;9.20;2.60;;;;;;;33.84;21.06;99358.41;136030;1254;22538;-69
2023/06/05 11:21:23;;;;;;;9.90;2.70;;;;;;;34.24;21.28;99353.42;136000;1276;22527;-68
2023/06/05 11:24:26;;;;;;;12.90;2.50;;;;;;;34.58;21.30;99352.13;136003;1260;22552;-73
2023/06/05 11:27:30;;;;;;;12.80;3.00;;;;;;;34.68;21.36;99348.70;136036;1276;22526;-69
2023/06/05 11:30:33;;;;;;;10.00;2.70;;;;;;;34.74;21.37;99347.10;136004;1276;22545;-69
2023/06/05 11:33:36;;;;;;;11.70;2.50;;;;;;;34.97;21.26;99350.80;136053;1276;22536;-72
2023/06/05 11:36:38;;;;;;;5.90;2.20;;;;;;;34.95;20.29;99346.52;136023;1276;22640;-68
2023/06/05 11:39:41;;;;;;;9.60;2.50;;;;;;;34.54;20.58;99347.95;136003;1276;22523;-68
2023/06/05 11:42:44;;;;;;;9.90;2.80;;;;;;;34.61;20.67;99348.55;136022;1276;22547;-67
2023/06/05 11:45:48;;;;;;;12.10;2.70;;;;;;;34.60;20.58;99348.43;135991;1276;22531;-66
2023/06/05 11:48:51;;;;;;;8.30;2.40;;;;;;;34.07;19.38;99342.12;136042;1276;22545;-67
2023/06/05 11:51:55;;;;;;;7.70;2.60;;;;;;;33.69;19.96;99339.76;136008;1276;22532;-69
2023/06/05 11:55:05;;;;;;;7.90;2.40;;;;;;;33.60;20.74;99345.61;135998;1276;22536;-68
2023/06/05 11:58:08;;;;;;;12.60;3.00;;;;;;;33.81;20.76;99339.35;135994;1276;22516;-67
2023/06/05 12:01:14;;;;;;;9.80;2.70;;;;;;;34.00;20.75;99337.15;136018;1276;22697;-65
2023/06/05 12:04:18;;;;;;;7.60;2.30;;;;;;;34.15;20.38;99331.54;135955;1276;22555;-64
2023/06/05 12:07:21;;;;;;;10.20;2.50;;;;;;;34.18;21.01;99330.95;135889;1276;22520;-66
2023/06/05 12:10:25;;;;;;;7.50;2.40;;;;;;;34.69;20.67;99328.57;136022;1276;22516;-64
2023/06/05 12:13:29;;;;;;;13.80;3.10;;;;;;;35.12;20.80;99326.09;136020;1276;22530;-64
2023/06/05 12:16:32;;;;;;;7.90;2.30;;;;;;;35.34;20.28;99316.98;136041;1276;22534;-66
2023/06/05 12:19:35;;;;;;;10.10;2.40;;;;;;;35.22;19.28;99319.14;136012;1276;22546;-65
2023/06/05 12:22:38;;;;;;;14.20;2.50;;;;;;;34.90;19.29;99324.40;136025;1273;22529;-65
2023/06/05 12:25:41;;;;;;;7.20;2.70;;;;;;;34.58;19.42;99323.25;135992;1270;22552;-66
2023/06/05 12:28:45;;;;;;;9.30;2.40;;;;;;;34.67;20.49;99319.27;136026;1276;22548;-66
2023/06/05 12:31:47;;;;;;;10.70;2.40;;;;;;;35.04;20.01;99321.73;136034;1276;22575;-66
2023/06/05 12:34:51;;;;;;;8.20;2.70;;;;;;;35.15;20.26;99320.20;136011;1276;22543;-68
2023/06/05 12:37:54;;;;;;;11.70;2.90;;;;;;;35.33;20.02;99314.80;136032;1276;25468;-66
2023/06/05 12:41:01;;;;;;;9.30;2.60;;;;;;;35.47;20.12;99312.05;136053;1276;22533;-67
2023/06/05 12:44:04;;;;;;;12.10;2.50;;;;;;;35.51;20.01;99310.64;136016;1276;22523;-68
2023/06/05 12:47:08;;;;;;;7.10;2.40;;;;;;;35.66;19.85;99308.54;135976;1276;22539;-66
2023/06/05 12:50:11;;;;;;;12.30;2.70;;;;;;;35.80;19.48;99306.08;136015;1259;22509;-68
2023/06/05 12:53:22;;;;;;;8.50;2.70;;;;;;;35.63;20.11;99302.23;136039;1276;22123;-66
2023/06/05 12:56:26;;;;;;;7.60;2.50;;;;;;;35.67;19.97;99302.63;136035;1276;22541;-68
2023/06/05 12:59:29;;;;;;;7.60;2.40;;;;;;;35.43;18.78;99296.52;136038;1275;22523;-69
2023/06/05 13:02:36;;;;;;;7.70;2.40;;;;;;;35.02;19.21;99289.66;136007;1276;22543;-69
2023/06/05 13:05:38;;;;;;;8.80;2.30;;;;;;;34.51;19.37;99283.80;136077;1276;22533;-69
2023/06/05 13:08:42;;;;;;;6.60;2.60;;;;;;;34.64;19.71;99279.23;136018;1276;22523;-69
2023/06/05 13:11:44;;;;;;;8.20;2.50;;;;;;;35.07;19.75;99276.77;136025;1259;24212;-65
2023/06/05 13:14:48;;;;;;;13.90;2.50;;;;;;;35.13;20.04;99277.17;135907;1276;22516;-68
2023/06/05 13:17:51;;;;;;;7.10;2.40;;;;;;;35.23;19.86;99276.20;136100;1276;22517;-69
2023/06/05 13:20:54;;;;;;;13.60;3.10;;;;;;;34.87;18.43;99273.54;136046;1276;22673;-71
2023/06/05 13:23:57;;;;;;;9.60;2.30;;;;;;;34.31;18.78;99271.16;136077;1276;22539;-71
2023/06/05 13:27:08;;;;;;;11.40;2.50;;;;;;;34.21;19.53;99269.14;136026;1276;22561;-71
2023/06/05 13:30:10;;;;;;;12.60;2.60;;;;;;;34.56;19.96;99277.00;135839;1259;22532;-66
2023/06/05 13:33:22;;;;;;;14.80;2.80;;;;;;;34.87;19.73;99274.98;136057;1276;22491;-66
2023/06/05 13:36:26;;;;;;;9.00;2.80;;;;;;;35.57;19.65;99267.55;136107;1276;22535;-68
2023/06/05 13:39:29;;;;;;;8.10;2.70;;;;;;;35.46;18.26;99263.30;135960;1276;22510;-71
2023/06/05 13:42:32;;;;;;;6.70;2.00;;;;;;;34.90;19.30;99261.79;136045;1275;22522;-69
2023/06/05 13:45:35;;;;;;;9.10;2.40;;;;;;;35.12;19.78;99259.92;136080;1276;22529;-67
2023/06/05 13:48:38;;;;;;;8.40;2.70;;;;;;;35.54;19.83;99253.87;135969;1276;22517;-70
2023/06/05 13:51:42;;;;;;;8.20;2.70;;;;;;;35.67;19.56;99247.48;135918;1276;22549;-66
2023/06/05 13:54:45;;;;;;;15.80;2.70;;;;;;;35.73;19.74;99242.61;135950;1276;22548;-69
2023/06/05 13:57:47;;;;;;;10.50;2.80;;;;;;;35.72;19.31;99242.42;135960;1275;25312;-68
2023/06/05 14:00:50;;;;;;;8.80;2.60;;;;;;;35.64;19.63;99243.16;135929;1276;22531;-68
2023/06/05 14:03:53;;;;;;;8.40;2.50;;;;;;;35.49;19.63;99248.77;135854;1276;25398;-70
2023/06/05 14:06:58;;;;;;;10.00;2.60;;;;;;;35.38;19.12;99249.23;136056;1276;22519;-70
2023/06/05 14:10:01;;;;;;;14.90;2.90;;;;;;;35.27;19.63;99250.16;136083;1259;22520;-68
2023/06/05 14:13:04;;;;;;;12.10;2.50;;;;;;;35.38;19.93;99240.89;135994;1276;22547;-69
2023/06/05 14:16:08;;;;;;;6.70;2.20;;;;;;;35.62;19.79;99235.56;135865;1276;22539;-72